sensor_id;sensor_type;location;lat;lon;timestamp;pressure;altitude;pressure_sealevel;temperature;humidity
77975;BME280;67164;51.202;0.278;2023-10-13T00:00:45;100598.65;;;23.28;53.57
77975;BME280;67164;51.202;0.278;2023-10-13T00:03:11;100594.57;;;23.28;53.61
77975;BME280;67164;51.202;0.278;2023-10-13T00:05:37;100593.81;;;23.24;53.66
77975;BME280;67164;51.202;0.278;2023-10-13T00:08:04;100588.01;;;23.29;53.59
77975;BME280;67164;51.202;0.278;2023-10-13T00:10:28;100586.97;;;23.45;53.72
77975;BME280;67164;51.202;0.278;2023-10-13T00:12:54;100584.87;;;23.34;53.43
77975;BME280;67164;51.202;0.278;2023-10-13T00:15:20;100579.87;;;23.27;53.48
77975;BME280;67164;51.202;0.278;2023-10-13T00:17:46;100574.48;;;23.50;53.47
77975;BME280;67164;51.202;0.278;2023-10-13T00:20:11;100569.74;;;23.31;53.44
77975;BME280;67164;51.202;0.278;2023-10-13T00:22:37;100568.07;;;23.24;53.51
77975;BME280;67164;51.202;0.278;2023-10-13T00:25:04;100565.38;;;23.31;53.35
77975;BME280;67164;51.202;0.278;2023-10-13T00:27:28;100559.36;;;23.30;53.37
77975;BME280;67164;51.202;0.278;2023-10-13T00:29:55;100554.57;;;23.49;53.44
77975;BME280;67164;51.202;0.278;2023-10-13T00:32:20;100547.89;;;23.29;53.02
77975;BME280;67164;51.202;0.278;2023-10-13T00:34:46;100541.79;;;23.61;53.04
77975;BME280;67164;51.202;0.278;2023-10-13T00:37:11;100534.86;;;23.35;53.08
77975;BME280;67164;51.202;0.278;2023-10-13T00:39:37;100533.38;;;23.58;52.98
77975;BME280;67164;51.202;0.278;2023-10-13T00:42:03;100533.25;;;23.35;53.14
77975;BME280;67164;51.202;0.278;2023-10-13T00:44:29;100527.56;;;23.34;53.12
77975;BME280;67164;51.202;0.278;2023-10-13T00:46:55;100530.66;;;23.32;53.14
77975;BME280;67164;51.202;0.278;2023-10-13T00:49:20;100526.77;;;23.30;53.18
77975;BME280;67164;51.202;0.278;2023-10-13T00:51:46;100523.12;;;23.23;53.26
77975;BME280;67164;51.202;0.278;2023-10-13T00:54:12;100525.19;;;23.19;53.30
77975;BME280;67164;51.202;0.278;2023-10-13T00:56:38;100518.53;;;23.26;53.15
77975;BME280;67164;51.202;0.278;2023-10-13T00:59:03;100504.84;;;23.35;52.84
77975;BME280;67164;51.202;0.278;2023-10-13T01:01:29;100501.62;;;23.28;52.98
77975;BME280;67164;51.202;0.278;2023-10-13T01:03:55;100485.67;;;23.55;52.83
77975;BME280;67164;51.202;0.278;2023-10-13T01:06:21;100488.11;;;23.75;52.88
77975;BME280;67164;51.202;0.278;2023-10-13T01:08:47;100483.63;;;23.49;52.84
77975;BME280;67164;51.202;0.278;2023-10-13T01:11:12;100488.00;;;23.30;52.85
77975;BME280;67164;51.202;0.278;2023-10-13T01:13:37;100480.39;;;23.26;53.00
77975;BME280;67164;51.202;0.278;2023-10-13T01:16:04;100478.14;;;23.34;52.69
77975;BME280;67164;51.202;0.278;2023-10-13T01:18:29;100470.78;;;23.25;52.73
77975;BME280;67164;51.202;0.278;2023-10-13T01:20:55;100469.61;;;23.32;52.73
77975;BME280;67164;51.202;0.278;2023-10-13T01:23:21;100462.56;;;23.23;52.75
77975;BME280;67164;51.202;0.278;2023-10-13T01:25:46;100449.28;;;23.33;52.65
77975;BME280;67164;51.202;0.278;2023-10-13T01:28:12;100448.77;;;23.18;52.81
77975;BME280;67164;51.202;0.278;2023-10-13T01:30:38;100443.37;;;23.46;52.95
77975;BME280;67164;51.202;0.278;2023-10-13T01:33:04;100442.18;;;23.12;52.66
77975;BME280;67164;51.202;0.278;2023-10-13T01:35:29;100432.80;;;23.26;52.75
77975;BME280;67164;51.202;0.278;2023-10-13T01:37:55;100430.80;;;23.24;52.64
77975;BME280;67164;51.202;0.278;2023-10-13T01:40:21;100426.78;;;23.76;52.65
77975;BME280;67164;51.202;0.278;2023-10-13T01:42:47;100413.80;;;23.13;52.66
77975;BME280;67164;51.202;0.278;2023-10-13T01:45:13;100398.69;;;23.08;52.80
77975;BME280;67164;51.202;0.278;2023-10-13T01:47:39;100392.72;;;23.50;52.56
77975;BME280;67164;51.202;0.278;2023-10-13T01:50:05;100394.09;;;23.03;52.50
77975;BME280;67164;51.202;0.278;2023-10-13T01:52:30;100388.57;;;23.26;52.48
77975;BME280;67164;51.202;0.278;2023-10-13T01:54:55;100380.14;;;23.52;52.46
77975;BME280;67164;51.202;0.278;2023-10-13T01:57:21;100365.85;;;23.10;52.46
77975;BME280;67164;51.202;0.278;2023-10-13T01:59:48;100356.65;;;23.08;52.66
77975;BME280;67164;51.202;0.278;2023-10-13T02:02:13;100345.74;;;23.16;52.58
77975;BME280;67164;51.202;0.278;2023-10-13T02:04:39;100333.33;;;23.60;52.66
77975;BME280;67164;51.202;0.278;2023-10-13T02:07:04;100317.64;;;23.13;52.58
77975;BME280;67164;51.202;0.278;2023-10-13T02:09:30;100318.36;;;23.34;52.72
77975;BME280;67164;51.202;0.278;2023-10-13T02:11:56;100320.38;;;23.04;52.87
77975;BME280;67164;51.202;0.278;2023-10-13T02:14:22;100315.58;;;23.27;52.80
77975;BME280;67164;51.202;0.278;2023-10-13T02:16:47;100302.77;;;23.06;52.79
77975;BME280;67164;51.202;0.278;2023-10-13T02:19:13;100296.43;;;22.99;52.84
77975;BME280;67164;51.202;0.278;2023-10-13T02:21:39;100290.58;;;23.47;52.75
77975;BME280;67164;51.202;0.278;2023-10-13T02:24:05;100289.48;;;22.89;52.91
77975;BME280;67164;51.202;0.278;2023-10-13T02:26:31;100285.36;;;23.17;52.93
77975;BME280;67164;51.202;0.278;2023-10-13T02:28:57;100282.40;;;23.54;52.62
77975;BME280;67164;51.202;0.278;2023-10-13T02:31:22;100280.09;;;22.85;52.95
77975;BME280;67164;51.202;0.278;2023-10-13T02:33:47;100275.97;;;22.97;52.84
77975;BME280;67164;51.202;0.278;2023-10-13T02:36:13;100267.17;;;23.01;52.90
77975;BME280;67164;51.202;0.278;2023-10-13T02:38:39;100262.96;;;23.11;52.66
77975;BME280;67164;51.202;0.278;2023-10-13T02:41:11;100256.57;;;22.84;52.60
77975;BME280;67164;51.202;0.278;2023-10-13T02:43:31;100255.94;;;23.23;52.54
77975;BME280;67164;51.202;0.278;2023-10-13T02:45:56;100253.74;;;23.18;52.58
77975;BME280;67164;51.202;0.278;2023-10-13T02:48:22;100257.79;;;23.62;52.45
77975;BME280;67164;51.202;0.278;2023-10-13T02:50:57;100255.40;;;23.17;52.57
77975;BME280;67164;51.202;0.278;2023-10-13T02:53:13;100252.57;;;23.49;52.32
77975;BME280;67164;51.202;0.278;2023-10-13T02:55:51;100234.72;;;23.42;52.44
77975;BME280;67164;51.202;0.278;2023-10-13T02:58:05;100232.61;;;22.92;52.65
77975;BME280;67164;51.202;0.278;2023-10-13T03:00:31;100228.52;;;23.19;52.50
77975;BME280;67164;51.202;0.278;2023-10-13T03:02:57;100222.51;;;23.21;52.41
77975;BME280;67164;51.202;0.278;2023-10-13T03:05:22;100215.69;;;23.05;52.62
77975;BME280;67164;51.202;0.278;2023-10-13T03:07:48;100214.74;;;23.08;52.60
77975;BME280;67164;51.202;0.278;2023-10-13T03:10:14;100206.35;;;23.06;52.53
77975;BME280;67164;51.202;0.278;2023-10-13T03:12:40;100191.76;;;22.95;52.71
77975;BME280;67164;51.202;0.278;2023-10-13T03:15:07;100192.25;;;22.99;52.63
77975;BME280;67164;51.202;0.278;2023-10-13T03:17:31;100181.99;;;23.08;52.50
77975;BME280;67164;51.202;0.278;2023-10-13T03:19:57;100176.65;;;23.11;52.69
77975;BME280;67164;51.202;0.278;2023-10-13T03:22:23;100170.68;;;23.11;52.55
77975;BME280;67164;51.202;0.278;2023-10-13T03:24:48;100176.35;;;23.18;52.57
77975;BME280;67164;51.202;0.278;2023-10-13T03:27:15;100169.95;;;22.92;52.49
77975;BME280;67164;51.202;0.278;2023-10-13T03:29:40;100150.19;;;23.47;52.56
77975;BME280;67164;51.202;0.278;2023-10-13T03:32:05;100139.41;;;22.89;52.76
77975;BME280;67164;51.202;0.278;2023-10-13T03:34:31;100147.89;;;22.91;52.72
77975;BME280;67164;51.202;0.278;2023-10-13T03:36:57;100132.90;;;23.12;52.74
77975;BME280;67164;51.202;0.278;2023-10-13T03:39:23;100129.70;;;23.30;52.89
77975;BME280;67164;51.202;0.278;2023-10-13T03:41:49;100128.15;;;23.05;52.80
77975;BME280;67164;51.202;0.278;2023-10-13T03:44:14;100126.05;;;23.53;52.47
77975;BME280;67164;51.202;0.278;2023-10-13T03:46:40;100105.75;;;23.08;52.40
77975;BME280;67164;51.202;0.278;2023-10-13T03:49:06;100097.91;;;23.11;52.08
77975;BME280;67164;51.202;0.278;2023-10-13T03:51:32;100100.00;;;23.06;52.34
77975;BME280;67164;51.202;0.278;2023-10-13T03:53:57;100087.28;;;23.17;52.49
77975;BME280;67164;51.202;0.278;2023-10-13T03:56:24;100084.31;;;23.05;52.21
77975;BME280;67164;51.202;0.278;2023-10-13T03:58:49;100086.90;;;23.61;52.28
77975;BME280;67164;51.202;0.278;2023-10-13T04:01:15;100079.31;;;23.46;52.47
77975;BME280;67164;51.202;0.278;2023-10-13T04:03:41;100074.29;;;23.34;52.68
77975;BME280;67164;51.202;0.278;2023-10-13T04:06:06;100064.01;;;22.89;52.48
77975;BME280;67164;51.202;0.278;2023-10-13T04:08:32;100068.08;;;23.43;52.49
77975;BME280;67164;51.202;0.278;2023-10-13T04:10:58;100063.96;;;23.42;52.41
77975;BME280;67164;51.202;0.278;2023-10-13T04:13:23;100055.21;;;23.17;52.32
77975;BME280;67164;51.202;0.278;2023-10-13T04:15:49;100046.25;;;22.97;52.29
77975;BME280;67164;51.202;0.278;2023-10-13T04:18:15;100044.26;;;23.39;52.37
77975;BME280;67164;51.202;0.278;2023-10-13T04:20:41;100049.82;;;23.36;52.51
77975;BME280;67164;51.202;0.278;2023-10-13T04:23:06;100025.28;;;22.71;52.79
77975;BME280;67164;51.202;0.278;2023-10-13T04:25:32;100014.60;;;23.18;52.36
77975;BME280;67164;51.202;0.278;2023-10-13T04:27:58;100009.34;;;23.56;52.17
77975;BME280;67164;51.202;0.278;2023-10-13T04:30:24;100009.83;;;23.09;51.99
77975;BME280;67164;51.202;0.278;2023-10-13T04:32:50;100006.26;;;22.89;52.32
77975;BME280;67164;51.202;0.278;2023-10-13T04:35:16;99999.16;;;23.05;52.04
77975;BME280;67164;51.202;0.278;2023-10-13T04:37:41;99994.68;;;23.11;52.13
77975;BME280;67164;51.202;0.278;2023-10-13T04:40:08;99982.64;;;22.97;52.33
77975;BME280;67164;51.202;0.278;2023-10-13T04:42:33;99983.68;;;23.46;52.11
77975;BME280;67164;51.202;0.278;2023-10-13T04:44:58;99982.98;;;23.43;52.09
77975;BME280;67164;51.202;0.278;2023-10-13T04:47:24;99985.25;;;22.64;52.66
77975;BME280;67164;51.202;0.278;2023-10-13T04:49:50;99983.64;;;22.72;52.48
77975;BME280;67164;51.202;0.278;2023-10-13T04:52:16;99973.14;;;23.25;52.37
77975;BME280;67164;51.202;0.278;2023-10-13T04:54:43;99970.18;;;23.01;52.42
77975;BME280;67164;51.202;0.278;2023-10-13T04:57:07;99973.04;;;22.99;52.10
77975;BME280;67164;51.202;0.278;2023-10-13T04:59:33;99973.49;;;23.51;52.06
77975;BME280;67164;51.202;0.278;2023-10-13T05:01:58;99971.33;;;23.31;52.33
77975;BME280;67164;51.202;0.278;2023-10-13T05:04:24;99967.33;;;22.88;52.40
77975;BME280;67164;51.202;0.278;2023-10-13T05:06:50;99963.93;;;23.14;52.15
77975;BME280;67164;51.202;0.278;2023-10-13T05:09:16;99959.48;;;23.21;52.16
77975;BME280;67164;51.202;0.278;2023-10-13T05:11:41;99954.03;;;23.10;52.39
77975;BME280;67164;51.202;0.278;2023-10-13T05:14:07;99944.47;;;23.13;52.26
77975;BME280;67164;51.202;0.278;2023-10-13T05:16:33;99942.79;;;23.51;52.01
77975;BME280;67164;51.202;0.278;2023-10-13T05:19:07;99944.20;;;23.23;52.51
77975;BME280;67164;51.202;0.278;2023-10-13T05:21:25;99947.57;;;23.00;52.43
77975;BME280;67164;51.202;0.278;2023-10-13T05:23:50;99941.60;;;23.11;52.68
77975;BME280;67164;51.202;0.278;2023-10-13T05:26:16;99938.29;;;23.37;52.26
77975;BME280;67164;51.202;0.278;2023-10-13T05:28:42;99932.83;;;23.10;52.35
77975;BME280;67164;51.202;0.278;2023-10-13T05:31:08;99922.51;;;22.74;52.41
77975;BME280;67164;51.202;0.278;2023-10-13T05:33:33;99921.16;;;23.17;52.21
77975;BME280;67164;51.202;0.278;2023-10-13T05:35:59;99911.95;;;23.04;52.50
77975;BME280;67164;51.202;0.278;2023-10-13T05:38:25;99910.18;;;22.89;52.61
77975;BME280;67164;51.202;0.278;2023-10-13T05:40:52;99905.86;;;23.42;52.12
77975;BME280;67164;51.202;0.278;2023-10-13T05:43:16;99904.41;;;23.12;52.24
77975;BME280;67164;51.202;0.278;2023-10-13T05:45:42;99900.06;;;22.95;52.60
77975;BME280;67164;51.202;0.278;2023-10-13T05:48:08;99902.89;;;22.71;52.33
77975;BME280;67164;51.202;0.278;2023-10-13T05:50:33;99896.97;;;23.15;52.16
77975;BME280;67164;51.202;0.278;2023-10-13T05:52:59;99895.37;;;23.38;52.10
77975;BME280;67164;51.202;0.278;2023-10-13T05:55:25;99896.39;;;23.16;52.12
77975;BME280;67164;51.202;0.278;2023-10-13T05:57:50;99893.52;;;23.11;52.10
77975;BME280;67164;51.202;0.278;2023-10-13T06:00:16;99903.91;;;23.19;52.00
77975;BME280;67164;51.202;0.278;2023-10-13T06:02:42;99896.40;;;23.21;51.87
77975;BME280;67164;51.202;0.278;2023-10-13T06:05:09;99898.69;;;23.22;51.93
77975;BME280;67164;51.202;0.278;2023-10-13T06:07:34;99892.65;;;23.25;51.74
77975;BME280;67164;51.202;0.278;2023-10-13T06:09:59;99900.17;;;23.22;52.06
77975;BME280;67164;51.202;0.278;2023-10-13T06:12:25;99900.72;;;23.42;51.97
77975;BME280;67164;51.202;0.278;2023-10-13T06:14:50;99908.61;;;23.39;52.12
77975;BME280;67164;51.202;0.278;2023-10-13T06:17:16;99907.30;;;22.70;52.39
77975;BME280;67164;51.202;0.278;2023-10-13T06:19:42;99909.91;;;23.10;52.22
77975;BME280;67164;51.202;0.278;2023-10-13T06:22:08;99902.53;;;22.80;52.19
77975;BME280;67164;51.202;0.278;2023-10-13T06:24:33;99906.72;;;23.01;52.31
77975;BME280;67164;51.202;0.278;2023-10-13T06:26:59;99906.47;;;23.05;52.27
77975;BME280;67164;51.202;0.278;2023-10-13T06:29:25;99901.77;;;23.32;52.20
77975;BME280;67164;51.202;0.278;2023-10-13T06:31:51;99897.10;;;23.39;52.14
77975;BME280;67164;51.202;0.278;2023-10-13T06:34:17;99904.83;;;23.01;52.21
77975;BME280;67164;51.202;0.278;2023-10-13T06:36:45;99910.14;;;23.45;52.00
77975;BME280;67164;51.202;0.278;2023-10-13T06:39:08;99910.31;;;22.94;52.15
77975;BME280;67164;51.202;0.278;2023-10-13T06:41:34;99899.76;;;23.35;52.11
77975;BME280;67164;51.202;0.278;2023-10-13T06:44:00;99901.46;;;22.87;51.94
77975;BME280;67164;51.202;0.278;2023-10-13T06:46:27;99901.65;;;23.28;52.22
77975;BME280;67164;51.202;0.278;2023-10-13T06:48:51;99899.59;;;22.93;51.98
77975;BME280;67164;51.202;0.278;2023-10-13T06:51:17;99901.56;;;23.29;52.24
77975;BME280;67164;51.202;0.278;2023-10-13T06:53:42;99901.93;;;23.08;52.12
77975;BME280;67164;51.202;0.278;2023-10-13T06:56:08;99894.39;;;23.02;52.20
77975;BME280;67164;51.202;0.278;2023-10-13T06:58:34;99901.22;;;22.94;52.00
77975;BME280;67164;51.202;0.278;2023-10-13T07:00:59;99904.13;;;23.30;52.07
77975;BME280;67164;51.202;0.278;2023-10-13T07:03:25;99903.78;;;23.07;52.10
77975;BME280;67164;51.202;0.278;2023-10-13T07:05:50;99884.21;;;22.86;51.95
77975;BME280;67164;51.202;0.278;2023-10-13T07:08:16;99883.99;;;23.06;52.01
77975;BME280;67164;51.202;0.278;2023-10-13T07:10:47;99882.19;;;22.74;52.23
77975;BME280;67164;51.202;0.278;2023-10-13T07:13:07;99876.30;;;22.58;52.50
77975;BME280;67164;51.202;0.278;2023-10-13T07:15:34;99872.13;;;23.40;52.02
77975;BME280;67164;51.202;0.278;2023-10-13T07:17:58;99867.21;;;22.98;52.61
77975;BME280;67164;51.202;0.278;2023-10-13T07:20:23;99849.96;;;23.19;52.15
77975;BME280;67164;51.202;0.278;2023-10-13T07:22:50;99851.43;;;23.51;52.15
77975;BME280;67164;51.202;0.278;2023-10-13T07:25:15;99857.99;;;23.06;52.33
77975;BME280;67164;51.202;0.278;2023-10-13T07:27:40;99863.39;;;22.86;52.79
77975;BME280;67164;51.202;0.278;2023-10-13T07:30:07;99861.21;;;23.06;52.53
77975;BME280;67164;51.202;0.278;2023-10-13T07:32:32;99862.02;;;23.33;52.92
77975;BME280;67164;51.202;0.278;2023-10-13T07:34:58;99862.51;;;23.45;52.52
77975;BME280;67164;51.202;0.278;2023-10-13T07:37:24;99861.56;;;22.88;52.79
77975;BME280;67164;51.202;0.278;2023-10-13T07:39:49;99857.55;;;23.20;52.67
77975;BME280;67164;51.202;0.278;2023-10-13T07:42:15;99857.74;;;22.93;52.75
77975;BME280;67164;51.202;0.278;2023-10-13T07:44:40;99860.60;;;23.12;52.82
77975;BME280;67164;51.202;0.278;2023-10-13T07:47:06;99867.39;;;22.87;52.84
77975;BME280;67164;51.202;0.278;2023-10-13T07:49:35;99862.35;;;23.09;52.96
77975;BME280;67164;51.202;0.278;2023-10-13T07:52:00;99881.64;;;22.84;53.06
77975;BME280;67164;51.202;0.278;2023-10-13T07:54:23;99866.03;;;23.07;53.17
77975;BME280;67164;51.202;0.278;2023-10-13T07:56:49;99862.22;;;22.84;53.16
77975;BME280;67164;51.202;0.278;2023-10-13T07:59:14;99852.45;;;22.79;53.27
77975;BME280;67164;51.202;0.278;2023-10-13T08:01:40;99830.84;;;23.28;53.29
77975;BME280;67164;51.202;0.278;2023-10-13T08:04:06;99822.84;;;22.82;53.31
77975;BME280;67164;51.202;0.278;2023-10-13T08:06:31;99835.51;;;22.72;53.61
77975;BME280;67164;51.202;0.278;2023-10-13T08:08:57;99821.01;;;23.05;53.52
77975;BME280;67164;51.202;0.278;2023-10-13T08:11:23;99820.60;;;22.79;53.60
77975;BME280;67164;51.202;0.278;2023-10-13T08:13:49;99829.97;;;23.18;53.91
77975;BME280;67164;51.202;0.278;2023-10-13T08:16:14;99832.05;;;22.87;53.64
77975;BME280;67164;51.202;0.278;2023-10-13T08:18:40;99836.79;;;23.29;53.34
77975;BME280;67164;51.202;0.278;2023-10-13T08:21:06;99829.82;;;22.80;54.02
77975;BME280;67164;51.202;0.278;2023-10-13T08:23:32;99837.18;;;23.09;54.01
77975;BME280;67164;51.202;0.278;2023-10-13T08:25:57;99835.49;;;22.87;53.94
77975;BME280;67164;51.202;0.278;2023-10-13T08:28:23;99835.90;;;22.88;53.88
77975;BME280;67164;51.202;0.278;2023-10-13T08:30:48;99835.66;;;23.32;53.98
77975;BME280;67164;51.202;0.278;2023-10-13T08:33:14;99835.22;;;22.99;53.68
77975;BME280;67164;51.202;0.278;2023-10-13T08:35:40;99831.45;;;22.91;54.52
77975;BME280;67164;51.202;0.278;2023-10-13T08:38:05;99838.64;;;22.80;54.44
77975;BME280;67164;51.202;0.278;2023-10-13T08:40:31;99849.06;;;22.99;53.89
77975;BME280;67164;51.202;0.278;2023-10-13T08:42:57;99851.32;;;23.26;53.93
77975;BME280;67164;51.202;0.278;2023-10-13T08:45:22;99856.79;;;22.90;54.54
77975;BME280;67164;51.202;0.278;2023-10-13T08:47:48;99854.80;;;23.37;53.95
77975;BME280;67164;51.202;0.278;2023-10-13T08:50:14;99854.67;;;22.88;54.78
77975;BME280;67164;51.202;0.278;2023-10-13T08:52:40;99870.38;;;22.96;54.55
77975;BME280;67164;51.202;0.278;2023-10-13T08:55:07;99865.98;;;22.95;54.77
77975;BME280;67164;51.202;0.278;2023-10-13T08:57:31;99869.15;;;23.32;54.75
77975;BME280;67164;51.202;0.278;2023-10-13T08:59:57;99864.52;;;23.34;54.66
77975;BME280;67164;51.202;0.278;2023-10-13T09:02:23;99859.94;;;22.91;55.02
77975;BME280;67164;51.202;0.278;2023-10-13T09:04:49;99846.27;;;23.35;55.04
77975;BME280;67164;51.202;0.278;2023-10-13T09:07:14;99839.87;;;22.84;54.97
77975;BME280;67164;51.202;0.278;2023-10-13T09:09:46;99835.68;;;22.88;54.88
77975;BME280;67164;51.202;0.278;2023-10-13T09:12:11;99840.55;;;22.92;54.71
77975;BME280;67164;51.202;0.278;2023-10-13T09:14:31;99839.00;;;22.93;54.63
77975;BME280;67164;51.202;0.278;2023-10-13T09:17:02;99840.08;;;23.13;54.67
77975;BME280;67164;51.202;0.278;2023-10-13T09:19:22;99845.41;;;22.90;54.64
77975;BME280;67164;51.202;0.278;2023-10-13T09:21:48;99846.72;;;23.39;54.60
77975;BME280;67164;51.202;0.278;2023-10-13T09:24:14;99831.92;;;22.95;54.44
77975;BME280;67164;51.202;0.278;2023-10-13T09:26:39;99832.84;;;22.90;54.49
77975;BME280;67164;51.202;0.278;2023-10-13T09:29:15;99830.01;;;22.95;54.38
77975;BME280;67164;51.202;0.278;2023-10-13T09:31:31;99829.15;;;22.96;54.26
77975;BME280;67164;51.202;0.278;2023-10-13T09:33:56;99824.96;;;22.93;54.24
77975;BME280;67164;51.202;0.278;2023-10-13T09:36:22;99827.72;;;22.92;54.19
77975;BME280;67164;51.202;0.278;2023-10-13T09:38:48;99823.76;;;22.95;54.09
77975;BME280;67164;51.202;0.278;2023-10-13T09:41:14;99828.29;;;22.90;54.17
77975;BME280;67164;51.202;0.278;2023-10-13T09:43:39;99825.20;;;23.24;53.95
77975;BME280;67164;51.202;0.278;2023-10-13T09:46:06;99818.93;;;22.70;54.03
77975;BME280;67164;51.202;0.278;2023-10-13T09:48:33;99824.45;;;22.91;54.05
77975;BME280;67164;51.202;0.278;2023-10-13T09:51:01;99828.61;;;22.94;53.95
77975;BME280;67164;51.202;0.278;2023-10-13T09:53:23;99827.04;;;22.88;54.02
77975;BME280;67164;51.202;0.278;2023-10-13T09:55:49;99818.81;;;23.00;53.79
77975;BME280;67164;51.202;0.278;2023-10-13T09:58:14;99823.01;;;23.02;53.67
77975;BME280;67164;51.202;0.278;2023-10-13T10:00:43;99821.80;;;23.01;53.69
77975;BME280;67164;51.202;0.278;2023-10-13T10:03:06;99833.10;;;23.06;53.57
77975;BME280;67164;51.202;0.278;2023-10-13T10:05:31;99821.59;;;23.02;53.60
77975;BME280;67164;51.202;0.278;2023-10-13T10:07:57;99828.68;;;22.98;53.64
77975;BME280;67164;51.202;0.278;2023-10-13T10:10:22;99821.68;;;22.81;53.89
77975;BME280;67164;51.202;0.278;2023-10-13T10:12:52;99821.94;;;22.88;53.86
77975;BME280;67164;51.202;0.278;2023-10-13T10:15:23;99822.24;;;22.89;53.74
77975;BME280;67164;51.202;0.278;2023-10-13T10:17:41;99827.98;;;22.94;53.62
77975;BME280;67164;51.202;0.278;2023-10-13T10:20:05;99822.34;;;23.01;53.47
77975;BME280;67164;51.202;0.278;2023-10-13T10:22:31;99816.22;;;23.01;53.61
77975;BME280;67164;51.202;0.278;2023-10-13T10:24:57;99823.92;;;23.27;53.54
77975;BME280;67164;51.202;0.278;2023-10-13T10:27:25;99817.74;;;22.98;53.72
77975;BME280;67164;51.202;0.278;2023-10-13T10:29:52;99810.92;;;23.15;53.83
77975;BME280;67164;51.202;0.278;2023-10-13T10:32:14;99799.12;;;23.06;53.54
77975;BME280;67164;51.202;0.278;2023-10-13T10:34:39;99797.42;;;23.12;53.43
77975;BME280;67164;51.202;0.278;2023-10-13T10:37:05;99806.64;;;23.06;53.52
77975;BME280;67164;51.202;0.278;2023-10-13T10:39:34;99816.88;;;23.07;53.59
77975;BME280;67164;51.202;0.278;2023-10-13T10:41:55;99816.53;;;23.16;53.43
77975;BME280;67164;51.202;0.278;2023-10-13T10:44:20;99811.47;;;23.47;53.28
77975;BME280;67164;51.202;0.278;2023-10-13T10:46:46;99802.79;;;23.25;53.21
77975;BME280;67164;51.202;0.278;2023-10-13T10:49:11;99798.67;;;23.13;53.49
77975;BME280;67164;51.202;0.278;2023-10-13T10:51:44;99805.84;;;23.31;53.64
77975;BME280;67164;51.202;0.278;2023-10-13T10:54:04;99813.28;;;23.04;53.70
77975;BME280;67164;51.202;0.278;2023-10-13T10:56:29;99811.86;;;23.30;53.68
77975;BME280;67164;51.202;0.278;2023-10-13T10:58:56;99806.90;;;23.05;53.72
77975;BME280;67164;51.202;0.278;2023-10-13T11:01:20;99797.73;;;23.07;53.73
77975;BME280;67164;51.202;0.278;2023-10-13T11:03:54;99802.76;;;23.08;53.68
77975;BME280;67164;51.202;0.278;2023-10-13T11:06:12;99803.77;;;23.08;53.66
77975;BME280;67164;51.202;0.278;2023-10-13T11:08:37;99804.38;;;23.32;53.69
77975;BME280;67164;51.202;0.278;2023-10-13T11:11:03;99804.82;;;23.16;54.05
77975;BME280;67164;51.202;0.278;2023-10-13T11:15:53;99804.91;;;23.35;53.55
77975;BME280;67164;51.202;0.278;2023-10-13T11:18:29;99812.69;;;23.10;53.59
77975;BME280;67164;51.202;0.278;2023-10-13T11:20:45;99806.87;;;23.13;53.57
77975;BME280;67164;51.202;0.278;2023-10-13T11:23:12;99810.09;;;22.60;53.63
77975;BME280;67164;51.202;0.278;2023-10-13T11:25:36;99811.32;;;23.30;53.68
77975;BME280;67164;51.202;0.278;2023-10-13T11:28:09;99800.68;;;23.05;53.70
77975;BME280;67164;51.202;0.278;2023-10-13T11:30:28;99793.88;;;23.57;53.64
77975;BME280;67164;51.202;0.278;2023-10-13T11:32:57;99790.03;;;23.50;53.79
77975;BME280;67164;51.202;0.278;2023-10-13T11:35:18;99788.97;;;23.09;53.61
77975;BME280;67164;51.202;0.278;2023-10-13T11:37:43;99799.95;;;23.21;53.77
77975;BME280;67164;51.202;0.278;2023-10-13T11:40:09;99794.44;;;23.11;53.48
77975;BME280;67164;51.202;0.278;2023-10-13T11:42:34;99793.34;;;23.54;53.61
77975;BME280;67164;51.202;0.278;2023-10-13T11:45:00;99781.29;;;23.09;53.57
77975;BME280;67164;51.202;0.278;2023-10-13T11:47:26;99773.77;;;23.08;53.59
77975;BME280;67164;51.202;0.278;2023-10-13T11:49:52;99768.22;;;23.09;53.57
77975;BME280;67164;51.202;0.278;2023-10-13T11:52:17;99771.49;;;23.02;53.80
77975;BME280;67164;51.202;0.278;2023-10-13T11:54:43;99770.92;;;23.03;53.81
77975;BME280;67164;51.202;0.278;2023-10-13T11:57:09;99771.87;;;23.07;53.73
77975;BME280;67164;51.202;0.278;2023-10-13T11:59:34;99765.13;;;23.35;53.66
77975;BME280;67164;51.202;0.278;2023-10-13T12:02:00;99770.61;;;23.01;53.88
77975;BME280;67164;51.202;0.278;2023-10-13T12:04:26;99770.14;;;23.10;53.67
77975;BME280;67164;51.202;0.278;2023-10-13T12:06:51;99743.53;;;23.04;53.85
77975;BME280;67164;51.202;0.278;2023-10-13T12:09:17;99761.57;;;23.35;53.67
77975;BME280;67164;51.202;0.278;2023-10-13T12:11:43;99777.53;;;23.08;53.77
77975;BME280;67164;51.202;0.278;2023-10-13T12:14:09;99762.35;;;23.12;53.73
77975;BME280;67164;51.202;0.278;2023-10-13T12:16:34;99771.62;;;23.07;53.81
77975;BME280;67164;51.202;0.278;2023-10-13T12:19:01;99776.05;;;23.09;53.82
77975;BME280;67164;51.202;0.278;2023-10-13T12:21:26;99781.95;;;22.83;53.87
77975;BME280;67164;51.202;0.278;2023-10-13T12:23:52;99793.91;;;23.24;54.03
77975;BME280;67164;51.202;0.278;2023-10-13T12:26:17;99801.70;;;22.98;53.99
77975;BME280;67164;51.202;0.278;2023-10-13T12:28:43;99793.81;;;23.11;53.72
77975;BME280;67164;51.202;0.278;2023-10-13T12:31:08;99791.00;;;23.06;53.81
77975;BME280;67164;51.202;0.278;2023-10-13T12:33:34;99794.60;;;23.06;53.81
77975;BME280;67164;51.202;0.278;2023-10-13T12:36:01;99783.84;;;22.32;55.14
77975;BME280;67164;51.202;0.278;2023-10-13T12:38:25;99786.50;;;22.94;54.28
77975;BME280;67164;51.202;0.278;2023-10-13T12:40:51;99787.88;;;23.02;54.16
77975;BME280;67164;51.202;0.278;2023-10-13T12:43:17;99780.53;;;23.01;54.21
77975;BME280;67164;51.202;0.278;2023-10-13T12:45:43;99772.67;;;23.25;54.03
77975;BME280;67164;51.202;0.278;2023-10-13T12:48:08;99778.27;;;23.26;53.93
77975;BME280;67164;51.202;0.278;2023-10-13T12:50:34;99776.04;;;23.13;54.33